• Join FlightAware (Why Join?)
  • Login
  • US Flag GB Flag 
06:17 EDT


 

Airport Tracker/Info


-or-


 

Live Flight TrackerFlight Track Log ✈ DAL6048 ✈ 20-May-2013 ✈ KMHT - KLGA

Flight Track Log - Related Links

Times and Time Zones

All times are in EDT time to prevent confusion due to time zone crossing. See the DAL6048 flight status page for this flight to view local times or setup timezone preferences in your user account.

Time Position Orientation Groundspeed Altitude Reporting Facility
EDT Latitude Longitude Course Direction KTS MPH feet Rate Location/Type
16:25 42.9964 -71.4722 339° North 191 220 3,500  Level Boston Center
16:26 43.0508 -71.4997 340° North 185 213 6,200 2,400 Climbing Boston Center
16:27 42.9501 -72.0740 270° West  Level FlightAware Approximate
16:27 43.0825 -71.5419 316° Northwest 185 213 8,400  Level Boston Center
16:28 42.9509 -72.2354 274° West  Level FlightAware Approximate
16:28 43.0853 -71.6356 272° West 203 234 9,900  Level Boston Center
16:29 42.9583 -72.3966 274° West  Level FlightAware Approximate
16:29 43.0714 -71.7294 259° West 248 285 11,400  Level Boston Center
16:30 43.0533 -71.8492 258° West 291 335 12,900 1,440 Climbing Boston Center
16:31 43.0350 -71.9714 258° West 327 376 14,300 1,200 Climbing Boston Center
16:32 43.0167 -72.0936 258° West 339 390 15,400 1,200 Climbing Boston Center
16:33 42.9942 -72.2214 257° West 339 390 16,800 1,260 Climbing Boston Center
16:34 42.9339 -72.3125 228° Southwest 339 390 18,000 1,200 Climbing Boston Center
16:35 42.8589 -72.4006 221° Southwest 353 406 19,200 960 Climbing Boston Center
16:36 42.7817 -72.4911 221° Southwest 361 415 20,000 360 Climbing Boston Center
16:37 42.6919 -72.5925 220° Southwest 392 451 20,000  Level Boston Center
16:38 42.5961 -72.6911 217° Southwest 414 476 20,000  Level Boston Center
16:39 42.5061 -72.7836 217° Southwest 425 489 20,000  Level Boston Center
16:40 42.4142 -72.8872 220° Southwest 425 489 20,000 -300 Level Boston Center
16:41 42.3094 -73.0100 221° Southwest 439 505 19,400 -900 Descending Boston Center
16:42 42.2192 -73.1100 219° Southwest 445 512 18,300 -720 Descending Boston Center
16:43 42.1311 -73.2072 219° Southwest 434 499 18,000 -180 Descending Boston Center
16:44 42.0533 -73.2956 220° Southwest 402 463 18,000  Level Boston Center
16:45 41.9861 -73.3675 219° Southwest 360 414 18,000 -300 Level Boston Center
16:46 41.9061 -73.4556 219° Southwest 343 395 17,400 -780 Descending Boston Center
16:47 41.8719 -73.5469 243° Southwest 296 341 16,500 -1,140 Descending Boston Center
16:48 41.8600 -73.6750 263° West 309 356 15,200 -1,320 Descending Boston Center
16:49 41.8381 -73.7858 255° West 316 364 13,900 -1,200 Descending Boston Center
16:50 41.7564 -73.8064 191° South 259 298 12,900 -1,080 Descending Boston Center
16:51 41.6731 -73.8075 181° South 275 316 11,800 -1,260 Descending Boston Center
16:52 41.6167 -73.8000 174° South 320 368 11,000 -1,500 Descending New York TRACON
16:53 41.5333 -73.8000 180° South 298 343 9,500 -1,440 Descending New York TRACON
16:54 41.4500 -73.8000 180° South 289 333 8,100 -720 Descending New York TRACON
16:55 41.3667 -73.8000 180° South 287 330 8,100  Level New York TRACON
16:56 41.3000 -73.7500 151° Southeast 294 338 8,100 -60 Level New York TRACON
16:57 41.2167 -73.6833 149° Southeast 294 338 8,000 -420 Descending New York TRACON
16:58 41.1667 -73.6333 143° Southeast 293 337 7,300 -1,020 Descending New York TRACON
16:58 41.1000 -73.6167 169° South 284 327 6,200 -1,200 Descending New York TRACON
17:00 41.0333 -73.6667 210° Southwest 273 314 4,900 -1,080 Descending New York TRACON
17:00 40.9667 -73.7167 210° Southwest 234 269 4,100 -840 Descending New York TRACON
17:02 40.9333 -73.7500 217° Southwest 181 208 3,300 -900 Descending New York TRACON
17:03 40.8833 -73.7833 207° Southwest 184 212 2,300 -900 Descending New York TRACON
17:04 40.8500 -73.8167 217° Southwest 146 168 1,500 -780 Descending New York TRACON
17:05 40.8167 -73.8500 217° Southwest 133 153 800 -720 Descending New York TRACON